Main page
METAR-TAF:

METAR-TAF

Airports :

Rodez–Aveyron Airport

Rodez, France

latitude: 44-24N, longitude: 002-29E, elevation: 581 m

Current weather observation

The report was made 27 minutes ago, at 05:30 UTC
Wind 3 kt from variable directions
Temperature 0°C
Humidity 100%
Pressure 1024 hPa
Visibility: 0450 m
freezing fog

METAR: LFCR 110530Z AUTO VRB03KT 0450 R31/0550N FZFG VV/// M00/M00 Q1024 TEMPO 0300 FG

Time: 06:57 (05:57 UTC)

Forecast

The report was made 57 minutes ago, at 05:00 UTC
Forecast valid from 11 at 06 UTC to 12 at 06 UTC
Wind 2 kt from variable directions
Visibility: 3000 m
Broken clouds at a height of 200 ft
mist
Temporary
from 11 at 06 UTC to 11 at 08 UTC
Visibility: 0300 m
fog
Becoming
from 11 at 08 UTC to 11 at 10 UTC
Visibility 10 km or more
no clouds below 1500 m and no cumulonimbus

TAF: LFCR 110500Z 1106/1206 VRB02KT 3000 BR BKN002 TEMPO 1106/1108 0300 FG VV/// BECMG 1108/1110 CAVOK

Weather observations and forecasts of more than 4000 airports (METAR and TAF reports).

The available stations are represented by yellow and red dots on the map.

Hover mouse over dot to see the name of the station.

Then click to see weather observations and forecasts.

To change the map : click on the green buttons with a black cross to zoom in, on the green button with a dash to zoom out, or on the green arrows for adjacent maps.


METAR-TAF: